Time;durP1;ratioP1;P1;durP2;ratioP2;P2;SDS_P1;SDS_P2;PMS_P1;PMS_P2;Temp;Humidity;BMP_temperature;BMP_pressure;BME280_temperature;BME280_humidity;BME280_pressure;Samples;Min_cycle;Max_cycle;Signal;HPM_P1;HPM_P2
2022/09/24 00:04:28;;;;;;;13.27;11.25;;;;;;;13.82;100.00;101204.28;10569884;28;20067;-73
2022/09/24 00:09:28;;;;;;;20.65;14.93;;;;;;;13.84;100.00;101199.44;10583964;28;20391;-73
2022/09/24 00:14:28;;;;;;;16.73;13.63;;;;;;;13.86;100.00;101197.38;10584886;28;20076;-73
2022/09/24 00:19:29;;;;;;;16.65;13.30;;;;;;;13.89;100.00;101194.22;10565577;28;20092;-73
2022/09/24 00:29:49;;;;;;;17.48;15.60;;;;;;;13.82;100.00;101187.97;10583324;28;20043;-74
2022/09/24 00:34:53;;;;;;;17.30;13.45;;;;;;;13.83;100.00;101184.19;10582667;28;20432;-74
2022/09/24 00:39:53;;;;;;;14.77;12.93;;;;;;;13.83;100.00;101189.63;10583104;28;20120;-74
2022/09/24 00:44:54;;;;;;;13.93;11.88;;;;;;;13.83;100.00;101186.91;10582626;28;20032;-74
2022/09/24 00:50:06;;;;;;;19.85;13.45;;;;;;;13.83;100.00;101182.28;10583115;28;20042;-74
2022/09/24 00:55:07;;;;;;;15.10;13.07;;;;;;;13.83;100.00;101189.63;10581814;28;20067;-74
2022/09/24 01:00:08;;;;;;;16.38;12.02;;;;;;;13.78;100.00;101182.06;10565248;28;20027;-74
2022/09/24 01:05:09;;;;;;;16.45;11.90;;;;;;;13.73;100.00;101173.72;10581470;28;20539;-74
2022/09/24 01:10:09;;;;;;;14.95;13.00;;;;;;;13.69;100.00;101173.31;10582593;28;20047;-74
2022/09/24 01:15:23;;;;;;;16.25;13.15;;;;;;;13.67;100.00;101166.41;10548551;28;20031;-74
2022/09/24 01:20:41;;;;;;;19.55;14.77;;;;;;;13.62;100.00;101167.03;10565797;28;20045;-74
2022/09/24 01:25:49;;;;;;;14.50;12.95;;;;;;;13.65;100.00;101160.31;10582887;28;20038;-74
2022/09/24 01:30:49;;;;;;;21.50;12.57;;;;;;;13.65;100.00;101154.88;10564699;28;20031;-75
2022/09/24 01:35:55;;;;;;;20.05;14.15;;;;;;;13.64;100.00;101148.63;10581483;28;20439;-74
2022/09/24 01:40:59;;;;;;;15.68;13.00;;;;;;;13.62;100.00;101139.81;10565573;28;20051;-75
2022/09/24 01:46:01;;;;;;;19.63;15.50;;;;;;;13.67;100.00;101126.41;10570927;28;20027;-74
2022/09/24 01:51:04;;;;;;;19.30;15.88;;;;;;;13.62;100.00;101122.66;10571957;28;20035;-74
2022/09/24 01:56:08;;;;;;;20.83;16.42;;;;;;;13.65;100.00;101125.78;10573297;28;20028;-74
2022/09/24 02:01:15;;;;;;;23.63;16.52;;;;;;;13.70;100.00;101120.56;10588003;28;20023;-74
2022/09/24 02:06:25;;;;;;;21.48;15.82;;;;;;;13.73;100.00;101120.13;10554694;28;20118;-74
2022/09/24 02:11:26;;;;;;;23.23;18.42;;;;;;;13.69;100.00;101116.16;10571328;28;20036;-74
2022/09/24 02:16:33;;;;;;;24.48;18.77;;;;;;;13.64;100.00;101109.69;10590295;28;20024;-74
2022/09/24 02:21:33;;;;;;;19.83;17.60;;;;;;;13.59;100.00;101098.59;10589731;28;20042;-75
2022/09/24 02:26:33;;;;;;;25.98;18.88;;;;;;;13.61;100.00;101110.94;10573799;28;20459;-75
2022/09/24 02:31:39;;;;;;;26.55;20.08;;;;;;;13.62;100.00;101090.81;10570254;28;20039;-75
2022/09/24 02:36:40;;;;;;;26.25;18.77;;;;;;;13.56;100.00;101105.31;10570505;28;20172;-75
2022/09/24 02:41:41;;;;;;;24.08;18.70;;;;;;;13.58;100.00;101094.19;10587463;28;20043;-75
2022/09/24 02:46:42;;;;;;;27.65;20.83;;;;;;;13.62;100.00;101106.31;10587370;28;20031;-74
2022/09/24 02:51:43;;;;;;;24.55;18.95;;;;;;;13.64;100.00;101105.06;10569585;28;20482;-74
2022/09/24 02:56:43;;;;;;;28.27;19.60;;;;;;;13.66;100.00;101100.25;10551626;28;20028;-75
2022/09/24 03:01:44;;;;;;;29.05;20.98;;;;;;;13.65;100.00;101098.56;10588531;28;20043;-75
2022/09/24 03:06:44;;;;;;;28.35;20.67;;;;;;;13.63;100.00;101091.69;10587128;28;20035;-75
2022/09/24 03:11:46;;;;;;;26.92;19.70;;;;;;;13.62;100.00;101095.44;10586382;28;20035;-74
2022/09/24 03:16:46;;;;;;;23.92;20.60;;;;;;;13.61;100.00;101094.59;10586710;28;20027;-75
2022/09/24 03:21:46;;;;;;;29.33;21.80;;;;;;;13.59;100.00;101095.88;10586429;28;20035;-75
2022/09/24 03:26:47;;;;;;;35.55;22.83;;;;;;;13.61;100.00;101094.59;10568742;28;20455;-75
2022/09/24 03:31:47;;;;;;;27.50;21.48;;;;;;;13.65;100.00;101090.41;10585575;28;20036;-74
2022/09/24 03:36:48;;;;;;;26.80;20.73;;;;;;;13.64;100.00;101088.75;10585745;28;20144;-75
2022/09/24 03:41:48;;;;;;;32.75;20.83;;;;;;;13.69;100.00;101091.69;10585198;28;20036;-75
2022/09/24 03:46:48;;;;;;;26.48;20.55;;;;;;;13.72;100.00;101093.13;10585532;28;20047;-75
2022/09/24 03:51:49;;;;;;;27.20;18.75;;;;;;;13.72;100.00;101093.13;10585235;28;20062;-75
2022/09/24 03:56:49;;;;;;;25.38;19.02;;;;;;;13.78;100.00;101094.16;10585066;28;20035;-74
2022/09/24 04:01:50;;;;;;;27.17;21.70;;;;;;;13.80;100.00;101092.06;10584917;28;20088;-74
2022/09/24 04:06:51;;;;;;;28.20;20.33;;;;;;;13.82;100.00;101095.41;10567164;28;20035;-75
2022/09/24 04:11:52;;;;;;;25.73;21.00;;;;;;;13.83;100.00;101089.75;10583852;28;20398;-75
2022/09/24 04:16:52;;;;;;;25.58;20.02;;;;;;;13.88;100.00;101095.38;10549126;28;20031;-75
2022/09/24 04:21:52;;;;;;;32.22;20.70;;;;;;;13.93;100.00;101087.41;10565802;28;20031;-75
2022/09/24 04:26:53;;;;;;;28.95;21.85;;;;;;;13.97;100.00;101095.97;10583918;28;20039;-75
2022/09/24 04:31:53;;;;;;;32.40;22.20;;;;;;;14.00;100.00;101098.25;10583822;28;20035;-75
2022/09/24 04:36:53;;;;;;;40.53;24.90;;;;;;;13.97;100.00;101101.41;10584455;28;20067;-74
2022/09/24 04:41:54;;;;;;;31.38;24.35;;;;;;;13.86;100.00;101105.66;10583498;28;20093;-73
2022/09/24 04:47:01;;;;;;;34.17;27.33;;;;;;;13.79;100.00;101115.72;10589931;28;20042;-73
2022/09/24 04:52:01;;;;;;;26.67;20.65;;;;;;;13.77;100.00;101101.47;10583892;28;20031;-73
2022/09/24 04:57:02;;;;;;;24.70;18.85;;;;;;;13.75;100.00;101100.00;10582837;28;20036;-74
2022/09/24 05:02:02;;;;;;;26.75;17.45;;;;;;;13.74;100.00;101104.63;10583372;28;20161;-74
2022/09/24 05:07:03;;;;;;;17.10;14.90;;;;;;;13.73;100.00;101103.78;10582679;28;20051;-75
2022/09/24 05:12:03;;;;;;;14.88;12.18;;;;;;;13.71;100.00;101100.44;10548237;28;20023;-75
2022/09/24 05:17:04;;;;;;;12.85;8.98;;;;;;;13.70;100.00;101100.66;10566584;28;20501;-76
2022/09/24 05:22:04;;;;;;;8.43;6.72;;;;;;;13.71;100.00;101105.88;10578499;28;20031;-75
2022/09/24 05:27:08;;;;;;;7.05;6.35;;;;;;;13.71;100.00;101105.88;10599553;28;20036;-76
2022/09/24 05:32:10;;;;;;;5.05;4.50;;;;;;;13.75;100.00;101110.91;10598121;28;20038;-75
2022/09/24 05:37:11;;;;;;;4.90;4.40;;;;;;;13.71;100.00;101110.50;10597794;28;20054;-75
2022/09/24 05:42:14;;;;;;;7.50;3.50;;;;;;;13.70;100.00;101115.09;10601244;28;20039;-74
2022/09/24 05:47:16;;;;;;;8.40;2.92;;;;;;;13.66;100.00;101113.88;10601505;28;20459;-74
2022/09/24 05:52:17;;;;;;;3.75;2.90;;;;;;;13.62;100.00;101134.38;10598926;28;20043;-74
2022/09/24 05:57:18;;;;;;;7.47;4.18;;;;;;;13.57;100.00;101142.34;10597459;28;20042;-74
2022/09/24 06:02:18;;;;;;;4.38;2.80;;;;;;;13.52;100.00;101142.13;10595727;28;20424;-74
2022/09/24 06:07:20;;;;;;;6.60;2.78;;;;;;;13.54;100.00;101148.22;10594616;28;20104;-74
2022/09/24 06:12:21;;;;;;;3.70;3.15;;;;;;;13.54;100.00;101153.66;10578038;28;20043;-74
2022/09/24 06:17:22;;;;;;;9.38;3.60;;;;;;;13.56;100.00;101150.72;10595351;28;20032;-74
2022/09/24 06:22:22;;;;;;;11.00;3.25;;;;;;;13.59;100.00;101164.75;10595822;28;20168;-74
2022/09/24 06:27:23;;;;;;;8.70;3.10;;;;;;;13.59;100.00;101164.75;10595158;28;20088;-74
2022/09/24 06:32:23;;;;;;;3.63;2.08;;;;;;;13.55;100.00;101166.19;10569487;28;20096;-74
2022/09/24 06:37:24;;;;;;;10.88;2.20;;;;;;;13.57;100.00;101172.28;10588148;28;20071;-74
2022/09/24 06:42:26;;;;;;;6.22;2.50;;;;;;;13.66;100.00;101173.75;10570096;28;20028;-74
2022/09/24 06:47:28;;;;;;;5.85;2.63;;;;;;;13.78;100.00;101181.25;10588538;28;20375;-75
2022/09/24 06:52:29;;;;;;;3.47;2.65;;;;;;;13.84;100.00;101191.28;10586360;28;20040;-74
2022/09/24 06:57:29;;;;;;;6.38;2.08;;;;;;;13.86;100.00;101190.03;10569239;28;20054;-74
2022/09/24 07:02:30;;;;;;;5.78;2.60;;;;;;;13.87;100.00;101201.75;10587185;28;20047;-74
2022/09/24 07:07:32;;;;;;;3.22;2.92;;;;;;;13.84;100.00;101197.56;10589764;28;20116;-75
2022/09/24 07:12:33;;;;;;;9.73;2.70;;;;;;;13.81;100.00;101202.59;10590137;28;20024;-75
2022/09/24 07:17:33;;;;;;;8.75;1.98;;;;;;;13.73;100.00;101209.94;10587305;28;20059;-74
2022/09/24 07:22:41;;;;;;;9.15;2.85;;;;;;;13.71;100.00;101203.84;10587017;28;20054;-74
2022/09/24 07:27:42;;;;;;;13.98;3.65;;;;;;;13.73;100.00;101209.94;10568337;28;20521;-75
2022/09/24 07:32:42;;;;;;;11.40;3.22;;;;;;;13.80;100.00;101220.00;10585440;28;20080;-75
2022/09/24 07:37:43;;;;;;;9.88;3.15;;;;;;;13.82;100.00;101220.63;10567072;28;20052;-75
2022/09/24 07:42:47;;;;;;;5.00;1.98;;;;;;;13.78;100.00;101222.91;10585915;28;20039;-74
2022/09/24 07:47:50;;;;;;;5.63;2.38;;;;;;;13.76;100.00;101226.91;10567333;28;20479;-75
2022/09/24 07:52:50;;;;;;;7.53;2.55;;;;;;;13.86;100.00;101227.31;10584372;28;20050;-75
2022/09/24 07:57:52;;;;;;;10.88;2.17;;;;;;;13.89;100.00;101244.06;10585058;28;20062;-76
2022/09/24 08:02:55;;;;;;;11.07;3.42;;;;;;;13.89;100.00;101245.94;10584206;28;20039;-74
2022/09/24 08:07:56;;;;;;;9.55;2.67;;;;;;;13.83;100.00;101246.78;10566778;28;20035;-76
2022/09/24 08:13:00;;;;;;;8.90;3.10;;;;;;;13.82;100.00;101247.84;10566712;28;20383;-78
2022/09/24 08:18:02;;;;;;;12.63;3.28;;;;;;;13.91;100.00;101257.44;10584149;28;20063;-76
2022/09/24 08:23:03;;;;;;;7.57;2.67;;;;;;;13.96;100.00;101263.09;10584531;28;20039;-76
2022/09/24 08:28:04;;;;;;;3.55;2.45;;;;;;;13.98;100.00;101269.19;10566890;28;20028;-76
2022/09/24 08:33:06;;;;;;;10.25;2.65;;;;;;;14.00;100.00;101269.78;10582800;28;20391;-75
2022/09/24 08:38:07;;;;;;;10.50;1.92;;;;;;;14.11;100.00;101276.50;10565744;28;20383;-75
2022/09/24 08:43:08;;;;;;;10.93;4.05;;;;;;;14.12;100.00;101281.72;10565318;28;20034;-75
2022/09/24 08:48:12;;;;;;;5.60;2.45;;;;;;;14.26;100.00;101284.44;10583118;28;20467;-75
2022/09/24 08:53:20;;;;;;;13.68;3.00;;;;;;;14.34;100.00;101290.50;10582177;28;20042;-75
2022/09/24 08:58:39;;;;;;;12.02;3.33;;;;;;;14.51;100.00;101290.88;10564909;28;20027;-75
2022/09/24 09:04:11;;;;;;;4.97;2.50;;;;;;;14.82;100.00;101289.34;10564303;28;20419;-75
2022/09/24 09:09:49;;;;;;;14.52;3.55;;;;;;;14.90;100.00;101302.72;10552149;28;20056;-75
2022/09/24 09:14:55;;;;;;;5.70;2.45;;;;;;;14.91;100.00;101309.03;10582508;28;20028;-75
2022/09/24 09:19:56;;;;;;;7.47;2.83;;;;;;;14.84;100.00;101306.31;10565619;28;20144;-75
2022/09/24 09:25:02;;;;;;;3.85;2.42;;;;;;;14.81;100.00;101298.56;10563537;28;20483;-75
2022/09/24 09:30:03;;;;;;;2.67;1.77;;;;;;;14.84;100.00;101309.88;10567728;28;20047;-75
2022/09/24 09:35:18;;;;;;;10.50;3.17;;;;;;;14.94;100.00;101320.34;10583943;28;20085;-75
2022/09/24 09:40:26;;;;;;;10.30;3.13;;;;;;;14.90;100.00;101321.81;10564320;28;20051;-74
2022/09/24 09:45:41;;;;;;;1.55;1.48;;;;;;;14.79;100.00;101325.19;10564072;28;20390;-74
2022/09/24 09:50:49;;;;;;;15.25;3.00;;;;;;;14.72;100.00;101330.69;10582766;28;20055;-74
2022/09/24 09:55:57;;;;;;;10.10;2.05;;;;;;;14.63;100.00;101327.34;10564582;28;20363;-75
2022/09/24 10:01:08;;;;;;;4.57;2.05;;;;;;;14.58;100.00;101332.63;10580716;28;20104;-75
2022/09/24 10:06:10;;;;;;;6.80;3.20;;;;;;;14.47;100.00;101329.66;10569336;28;20099;-75
2022/09/24 10:11:13;;;;;;;10.88;3.35;;;;;;;14.56;100.00;101331.97;10572333;28;20419;-75
2022/09/24 10:16:16;;;;;;;10.25;2.25;;;;;;;14.63;100.00;101324.63;10571517;28;20371;-76
2022/09/24 10:21:43;;;;;;;12.20;2.67;;;;;;;14.71;100.00;101333.59;10587624;28;20036;-75
2022/09/24 10:26:44;;;;;;;9.63;2.60;;;;;;;14.76;100.00;101337.38;10585551;28;20044;-76
2022/09/24 10:31:44;;;;;;;7.50;2.88;;;;;;;14.86;100.00;101339.66;10569662;28;20043;-76
2022/09/24 10:36:52;;;;;;;2.03;1.90;;;;;;;14.92;100.00;101344.25;10554489;28;20028;-74
2022/09/24 10:41:55;;;;;;;13.70;1.65;;;;;;;15.21;100.00;101336.56;10588615;28;20036;-75
2022/09/24 10:47:17;;;;;;;6.97;1.85;;;;;;;15.35;100.00;101340.91;10571105;28;20031;-75
2022/09/24 10:52:33;;;;;;;4.35;2.10;;;;;;;15.30;100.00;101346.19;10569857;28;20027;-74
2022/09/24 10:57:38;;;;;;;12.70;2.28;;;;;;;15.13;100.00;101354.03;10588202;28;20564;-75
2022/09/24 11:02:54;;;;;;;10.52;2.15;;;;;;;15.02;100.00;101354.69;10569978;28;20032;-74
2022/09/24 11:08:33;;;;;;;1.50;1.40;;;;;;;14.87;100.00;101364.00;10572047;28;20032;-75
2022/09/24 11:13:42;;;;;;;5.70;1.83;;;;;;;14.85;100.00;101371.53;10567838;28;20040;-74
2022/09/24 11:18:50;;;;;;;3.95;1.40;;;;;;;14.79;100.00;101375.09;10586390;28;20481;-74
2022/09/24 11:23:55;;;;;;;6.47;1.42;;;;;;;14.94;100.00;101366.69;10586277;28;20071;-74
2022/09/24 11:29:04;;;;;;;5.53;2.40;;;;;;;14.99;100.00;101375.03;10551050;28;20027;-74
2022/09/24 11:34:26;;;;;;;2.40;1.60;;;;;;;14.97;100.00;101371.72;10586633;28;20036;-75
2022/09/24 11:39:50;;;;;;;2.45;1.70;;;;;;;14.98;100.00;101380.72;10570884;28;20047;-75
2022/09/24 11:45:00;;;;;;;4.38;1.98;;;;;;;14.80;100.00;101379.50;10571336;28;20092;-77
2022/09/24 11:50:29;;;;;;;7.78;2.40;;;;;;;14.83;100.00;101379.06;10586288;28;20039;-78
2022/09/24 11:55:35;;;;;;;4.70;2.97;;;;;;;14.95;100.00;101390.16;10586658;28;20027;-76
2022/09/24 12:00:39;;;;;;;4.25;1.90;;;;;;;15.03;100.00;101392.69;10566388;28;20383;-74
2022/09/24 12:05:43;;;;;;;3.08;2.00;;;;;;;14.96;100.00;101391.00;10566879;28;20031;-74
2022/09/24 12:11:03;;;;;;;3.83;2.30;;;;;;;14.87;100.00;101379.50;10567060;28;20053;-75
2022/09/24 12:16:13;;;;;;;7.60;2.63;;;;;;;14.91;100.00;101380.75;10584833;28;20063;-75
2022/09/24 12:21:20;;;;;;;2.78;2.35;;;;;;;15.11;100.00;101378.78;10565327;28;20047;-74
2022/09/24 12:26:21;;;;;;;6.72;2.53;;;;;;;15.20;100.00;101376.66;10565942;28;20031;-75
2022/09/24 12:37:02;;;;;;;5.15;1.92;;;;;;;15.74;100.00;101375.34;10567640;28;20451;-75
2022/09/24 12:42:05;;;;;;;5.78;2.33;;;;;;;15.87;100.00;101371.69;10565859;28;20039;-75
2022/09/24 12:47:15;;;;;;;4.55;2.13;;;;;;;15.95;100.00;101374.16;10565382;28;20378;-75
2022/09/24 12:52:16;;;;;;;5.78;1.58;;;;;;;16.10;100.00;101375.72;10564888;28;20038;-75
2022/09/24 12:57:23;;;;;;;7.95;2.05;;;;;;;16.39;100.00;101375.03;10582655;28;20072;-75
2022/09/24 13:02:28;;;;;;;7.63;1.70;;;;;;;16.40;100.00;101381.31;10564999;28;20047;-74
2022/09/24 13:07:40;;;;;;;5.10;1.65;;;;;;;16.54;100.00;101387.53;10564504;28;20459;-74
2022/09/24 13:12:40;;;;;;;5.35;2.75;;;;;;;16.76;100.00;101386.06;10582497;28;20497;-74
2022/09/24 13:17:41;;;;;;;2.90;1.10;;;;;;;16.71;100.00;101383.97;10582388;28;20047;-73
2022/09/24 13:22:41;;;;;;;6.15;2.05;;;;;;;16.87;100.00;101377.09;10564151;28;20112;-73
2022/09/24 13:27:42;;;;;;;4.60;2.13;;;;;;;17.02;100.00;101382.19;10563992;28;20074;-73
2022/09/24 13:32:57;;;;;;;3.13;1.67;;;;;;;17.22;100.00;101383.84;10563764;28;20031;-73
2022/09/24 13:38:17;;;;;;;7.20;2.40;;;;;;;17.30;100.00;101387.13;10566660;28;20090;-73
2022/09/24 13:43:43;;;;;;;3.47;1.67;;;;;;;17.21;100.00;101383.00;10590444;28;20424;-72
2022/09/24 13:48:53;;;;;;;1.67;1.58;;;;;;;17.22;100.00;101390.16;10567308;28;20101;-72
2022/09/24 13:54:24;;;;;;;4.80;1.20;;;;;;;17.04;100.00;101382.81;10572441;28;20028;-72
2022/09/24 13:59:24;;;;;;;5.63;1.67;;;;;;;16.90;100.00;101403.16;10558560;28;20031;-72
2022/09/24 14:04:24;;;;;;;5.97;1.67;;;;;;;16.92;100.00;101395.56;10554511;28;20425;-72
2022/09/24 14:09:33;;;;;;;4.78;1.73;;;;;;;16.99;100.00;101404.53;10571425;28;20096;-72
2022/09/24 14:14:33;;;;;;;8.95;2.63;;;;;;;17.00;100.00;101403.47;10588963;28;20084;-72
2022/09/24 14:19:34;;;;;;;4.35;1.63;;;;;;;17.09;100.00;101399.34;10573326;28;20075;-71
2022/09/24 14:25:17;;;;;;;3.58;2.00;;;;;;;17.18;100.00;101397.16;10588449;28;20047;-71
2022/09/24 14:30:27;;;;;;;10.25;3.38;;;;;;;17.21;100.00;101404.91;10562227;28;20043;-71
2022/09/24 14:35:30;;;;;;;4.60;1.58;;;;;;;17.32;100.00;101398.66;10570022;28;20459;-71
2022/09/24 14:40:40;;;;;;;8.80;1.20;;;;;;;18.29;100.00;101400.44;10587035;28;20074;-71
2022/09/24 14:45:41;;;;;;;1.58;1.40;;;;;;;18.34;100.00;101408.78;10553684;28;20044;-71
2022/09/24 14:50:41;;;;;;;1.27;1.27;;;;;;;18.15;100.00;101416.25;10588457;28;20039;-71
2022/09/24 14:55:44;;;;;;;10.30;1.48;;;;;;;17.63;100.00;101419.50;10568776;28;20032;-71
2022/09/24 15:00:49;;;;;;;5.57;2.60;;;;;;;17.09;100.00;101417.69;10569613;28;20453;-71
2022/09/24 15:05:51;;;;;;;1.67;1.13;;;;;;;16.84;100.00;101424.03;10569862;28;20030;-71
2022/09/24 15:11:02;;;;;;;7.05;1.95;;;;;;;16.85;100.00;101417.53;10569618;28;20474;-71
2022/09/24 15:16:26;;;;;;;1.20;1.20;;;;;;;16.63;100.00;101424.47;10568917;28;20379;-70
2022/09/24 15:21:26;;;;;;;4.55;1.02;;;;;;;16.51;100.00;101418.88;10568283;28;20051;-71
2022/09/24 15:26:28;;;;;;;3.33;1.88;;;;;;;16.40;100.00;101423.19;10586409;28;20066;-71
2022/09/24 15:31:28;;;;;;;7.88;1.48;;;;;;;16.28;100.00;101424.97;10568403;28;20032;-71
2022/09/24 15:36:29;;;;;;;8.02;2.00;;;;;;;16.23;100.00;101428.34;10584936;28;20036;-71
2022/09/24 15:41:29;;;;;;;7.57;2.40;;;;;;;16.10;100.00;101419.44;10525059;28;20052;-71
2022/09/24 15:46:30;;;;;;;2.47;2.17;;;;;;;16.02;100.00;101429.56;10544045;28;20068;-71
2022/09/24 15:51:31;;;;;;;2.00;1.83;;;;;;;15.95;100.00;101430.66;10543191;28;20047;-71
2022/09/24 15:56:34;;;;;;;3.70;2.38;;;;;;;15.87;100.00;101430.94;10525253;28;20047;-71
2022/09/24 16:01:36;;;;;;;3.58;1.75;;;;;;;15.80;100.00;101442.72;10541559;28;20048;-71
2022/09/24 16:06:36;;;;;;;6.88;1.27;;;;;;;15.66;100.00;101445.72;10524437;28;20028;-70
2022/09/24 16:11:37;;;;;;;8.77;1.92;;;;;;;15.61;100.00;101456.47;10525510;28;20043;-71
2022/09/24 16:16:38;;;;;;;1.95;1.75;;;;;;;15.54;100.00;101449.16;10542218;28;20085;-71
2022/09/24 16:21:38;;;;;;;4.05;2.25;;;;;;;15.43;100.00;101447.06;10524607;28;20024;-71
2022/09/24 16:26:39;;;;;;;7.85;2.00;;;;;;;15.37;100.00;101450.66;10524512;28;20028;-71
2022/09/24 16:31:39;;;;;;;8.95;1.55;;;;;;;15.27;100.00;101467.50;10541239;28;20032;-71
2022/09/24 16:36:39;;;;;;;9.50;1.38;;;;;;;15.14;100.00;101461.25;10543083;28;20054;-70
2022/09/24 16:41:40;;;;;;;3.63;1.13;;;;;;;15.05;100.00;101479.72;10587784;28;20557;-71
2022/09/24 16:46:41;;;;;;;2.40;1.77;;;;;;;14.83;100.00;101495.50;10548465;28;20043;-71
2022/09/24 16:51:42;;;;;;;8.98;2.47;;;;;;;14.78;100.00;101481.66;10582417;28;20046;-70
2022/09/24 16:56:42;;;;;;;5.10;1.20;;;;;;;14.61;100.00;101490.28;10584141;28;20034;-71
2022/09/24 17:01:42;;;;;;;5.80;1.42;;;;;;;14.53;100.00;101486.91;10566121;28;20044;-71
2022/09/24 17:06:43;;;;;;;5.70;2.15;;;;;;;14.37;100.00;101493.59;10565045;28;20032;-70
2022/09/24 17:11:48;;;;;;;12.77;1.55;;;;;;;14.24;100.00;101504.47;10563740;28;20035;-70
2022/09/24 17:16:48;;;;;;;2.58;1.02;;;;;;;14.16;100.00;101509.03;10564194;28;20027;-70
2022/09/24 17:21:53;;;;;;;6.20;2.53;;;;;;;14.05;100.00;101509.66;10530433;28;20035;-70
2022/09/24 17:26:53;;;;;;;6.13;2.10;;;;;;;13.89;100.00;101518.19;10581117;28;20036;-71
2022/09/24 17:31:54;;;;;;;1.08;1.08;;;;;;;13.79;100.00;101524.03;10582903;28;20384;-70
2022/09/24 17:36:55;;;;;;;6.45;1.27;;;;;;;13.63;100.00;101522.50;10563488;28;20051;-70
2022/09/24 17:41:56;;;;;;;3.67;1.52;;;;;;;13.53;100.00;101529.34;10565172;28;20035;-71
2022/09/24 17:46:56;;;;;;;10.25;1.23;;;;;;;13.40;100.00;101533.69;10581999;28;20441;-71
2022/09/24 17:52:00;;;;;;;5.40;1.98;;;;;;;13.26;100.00;101535.47;10582392;28;20035;-71
2022/09/24 17:57:00;;;;;;;4.20;1.52;;;;;;;13.31;100.00;101540.31;10581531;28;20024;-71
2022/09/24 18:02:05;;;;;;;7.40;1.98;;;;;;;13.31;100.00;101550.38;10581559;28;20032;-70
2022/09/24 18:07:05;;;;;;;8.35;1.77;;;;;;;13.16;100.00;101555.88;10582039;28;20044;-71
2022/09/24 18:12:06;;;;;;;4.20;2.20;;;;;;;13.15;100.00;101559.66;10579644;28;20063;-71
2022/09/24 18:17:07;;;;;;;2.30;2.08;;;;;;;13.12;100.00;101563.59;10579558;28;20036;-71
2022/09/24 18:22:08;;;;;;;6.60;1.80;;;;;;;13.04;100.00;101567.28;10580887;28;20059;-71
2022/09/24 18:27:08;;;;;;;9.98;2.65;;;;;;;12.91;100.00;101578.06;10585945;28;20039;-71
2022/09/24 18:32:09;;;;;;;7.43;3.47;;;;;;;12.80;100.00;101575.88;10588867;28;20038;-71
2022/09/24 18:37:09;;;;;;;3.13;2.20;;;;;;;12.73;100.00;101586.69;10589018;28;20060;-71
2022/09/24 18:42:09;;;;;;;13.05;2.90;;;;;;;12.62;100.00;101589.94;10589029;28;20035;-71
2022/09/24 18:47:13;;;;;;;2.15;1.98;;;;;;;12.52;100.00;101590.25;10588709;28;20036;-71
2022/09/24 18:52:13;;;;;;;3.10;2.22;;;;;;;12.45;100.00;101602.94;10588470;28;20379;-71
2022/09/24 18:57:14;;;;;;;6.90;2.42;;;;;;;12.43;100.00;101596.00;10587741;28;20043;-71
2022/09/24 19:02:14;;;;;;;6.10;2.17;;;;;;;12.32;100.00;101606.34;10590643;28;20481;-71
2022/09/24 19:07:15;;;;;;;13.02;3.03;;;;;;;12.25;100.00;101610.88;10590890;28;20035;-71
2022/09/24 19:12:16;;;;;;;4.43;2.03;;;;;;;12.25;100.00;101616.28;10586561;28;20524;-71
2022/09/24 19:17:16;;;;;;;7.15;2.28;;;;;;;12.24;100.00;101609.16;10569469;28;20032;-71
2022/09/24 19:22:16;;;;;;;7.13;2.40;;;;;;;12.17;100.00;101612.84;10586711;28;20462;-71
2022/09/24 19:27:17;;;;;;;4.28;2.13;;;;;;;12.13;100.00;101622.41;10568222;28;20039;-71
2022/09/24 19:32:17;;;;;;;2.65;1.67;;;;;;;12.01;100.00;101622.03;10567713;28;20042;-71
2022/09/24 19:37:18;;;;;;;5.50;2.30;;;;;;;11.94;100.00;101623.84;10585319;28;20051;-71
2022/09/24 19:42:18;;;;;;;3.08;2.17;;;;;;;11.90;100.00;101634.22;10586575;28;20047;-71
2022/09/24 19:47:18;;;;;;;8.07;3.10;;;;;;;11.85;100.00;101637.50;10585723;28;20487;-71
2022/09/24 19:52:19;;;;;;;3.75;1.75;;;;;;;11.83;100.00;101633.25;10568888;28;20040;-71
2022/09/24 19:57:19;;;;;;;5.20;2.95;;;;;;;11.78;100.00;101641.13;10585336;28;20023;-71
2022/09/24 20:02:20;;;;;;;9.70;2.55;;;;;;;11.68;100.00;101641.41;10585155;28;20039;-71
2022/09/24 20:07:20;;;;;;;8.45;3.35;;;;;;;11.59;100.00;101648.78;10585492;28;20039;-71
2022/09/24 20:12:20;;;;;;;4.45;1.88;;;;;;;11.48;100.00;101656.53;10585927;28;20040;-71
2022/09/24 20:17:21;;;;;;;7.38;3.28;;;;;;;11.41;100.00;101648.28;10583902;28;20387;-71
2022/09/24 20:22:21;;;;;;;4.43;2.60;;;;;;;11.36;100.00;101653.44;10584967;28;20070;-71
2022/09/24 20:32:43;;;;;;;6.88;2.75;;;;;;;11.30;100.00;101657.72;10583424;28;20051;-71
2022/09/24 20:37:43;;;;;;;4.95;3.15;;;;;;;11.31;100.00;101662.09;10584460;28;20043;-71
2022/09/24 20:42:43;;;;;;;5.07;2.33;;;;;;;11.26;100.00;101669.94;10583324;28;20132;-71
2022/09/24 20:47:45;;;;;;;10.55;3.53;;;;;;;11.26;100.00;101661.81;10582436;28;20070;-71
2022/09/24 20:52:45;;;;;;;10.77;3.50;;;;;;;11.22;100.00;101667.78;10583166;28;20134;-71
2022/09/24 20:57:48;;;;;;;7.78;2.97;;;;;;;11.14;100.00;101676.84;10583461;28;20039;-71
2022/09/24 21:02:48;;;;;;;8.60;2.83;;;;;;;11.01;100.00;101663.91;10581564;28;20035;-71
2022/09/24 21:07:48;;;;;;;14.95;3.63;;;;;;;10.92;100.00;101665.00;10582703;28;20023;-71
2022/09/24 21:12:49;;;;;;;12.27;4.25;;;;;;;10.79;100.00;101654.75;10564326;28;20035;-71
2022/09/24 21:17:50;;;;;;;6.47;2.92;;;;;;;10.69;100.00;101663.13;10564370;28;20031;-71
2022/09/24 21:22:50;;;;;;;3.78;2.67;;;;;;;10.60;100.00;101664.19;10582358;28;20170;-72
2022/09/24 21:27:50;;;;;;;9.38;3.45;;;;;;;10.54;100.00;101669.50;10583149;28;20344;-72
2022/09/24 21:32:51;;;;;;;8.82;4.05;;;;;;;10.50;100.00;101674.41;10582079;28;20035;-71
2022/09/24 21:37:51;;;;;;;2.97;2.05;;;;;;;10.48;100.00;101674.59;10583566;28;20051;-71
2022/09/24 21:42:52;;;;;;;5.45;2.60;;;;;;;10.46;100.00;101673.06;10582624;28;20043;-71
2022/09/24 21:47:53;;;;;;;8.85;4.50;;;;;;;10.43;100.00;101670.72;10581951;28;20046;-71
2022/09/24 21:52:54;;;;;;;4.13;2.22;;;;;;;10.37;100.00;101674.13;10581693;28;20059;-71
2022/09/24 21:57:54;;;;;;;6.90;3.22;;;;;;;10.32;100.00;101680.09;10581158;28;20028;-71
2022/09/24 22:02:54;;;;;;;1.83;1.73;;;;;;;10.27;100.00;101674.34;10588508;28;20422;-72
2022/09/24 22:07:55;;;;;;;4.32;3.08;;;;;;;10.22;100.00;101671.31;10590362;28;20036;-71
2022/09/24 22:12:56;;;;;;;15.77;3.33;;;;;;;10.22;100.00;101677.56;10589535;28;20042;-71
2022/09/24 22:17:56;;;;;;;4.72;3.42;;;;;;;10.22;100.00;101676.72;10590070;28;20031;-71
2022/09/24 22:22:56;;;;;;;7.50;3.85;;;;;;;10.22;100.00;101676.72;10590246;28;20035;-71
2022/09/24 22:27:57;;;;;;;10.45;3.75;;;;;;;10.16;100.00;101674.72;10570791;28;20500;-72
2022/09/24 22:32:57;;;;;;;8.30;4.13;;;;;;;10.10;100.00;101686.25;10588264;28;20036;-72
2022/09/24 22:37:57;;;;;;;3.95;2.53;;;;;;;10.02;100.00;101685.25;10588187;28;20104;-72
2022/09/24 22:42:58;;;;;;;7.90;2.67;;;;;;;10.00;100.00;101679.16;10570239;28;20089;-71
2022/09/24 22:47:58;;;;;;;16.17;3.15;;;;;;;9.97;100.00;101684.09;10588227;28;20028;-71
2022/09/24 22:53:00;;;;;;;3.53;3.22;;;;;;;9.86;100.00;101679.91;10587361;28;20439;-72
2022/09/24 22:58:01;;;;;;;12.55;3.63;;;;;;;9.83;100.00;101674.84;10587864;28;20091;-71
2022/09/24 23:03:01;;;;;;;9.65;3.33;;;;;;;9.90;100.00;101678.53;10587596;28;20042;-71
2022/09/24 23:08:02;;;;;;;6.95;3.88;;;;;;;9.86;100.00;101681.75;10588117;28;20122;-72